createdAt,value
2022-10-04T07:58:25.371Z,97229.78
2022-10-04T07:59:49.497Z,97235.19
2022-10-04T08:01:28.471Z,97227.53
2022-10-04T08:02:39.938Z,97226.28
2022-10-04T08:04:11.515Z,97221.44
2022-10-04T08:14:38.022Z,97214.53
2022-10-04T08:15:42.283Z,97217.88
2022-10-04T08:17:11.824Z,97210.25
2022-10-04T08:18:31.255Z,97209.38
2022-10-04T08:19:57.975Z,97208.34
2022-10-04T08:26:08.635Z,97213.41
2022-10-04T08:27:26.464Z,97209.28
2022-10-04T08:28:55.870Z,97203.94
2022-10-04T08:30:02.430Z,97214.50
2022-10-04T08:31:52.558Z,97210.97
2022-10-04T08:33:20.672Z,97205.97
2022-10-04T08:34:31.881Z,97201.44
2022-10-04T08:36:07.722Z,97202.63
2022-10-04T08:37:17.848Z,97209.44
2022-10-04T08:50:05.320Z,97219.84
2022-10-04T08:51:25.539Z,97218.84
2022-10-04T08:52:51.909Z,97211.03
2022-10-04T08:54:20.805Z,97210.47
2022-10-04T08:56:03.782Z,97218.81
2022-10-04T08:57:15.677Z,97220.00
2022-10-04T08:58:55.234Z,97216.94
2022-10-04T09:00:08.797Z,97216.13
2022-10-04T09:01:28.595Z,97213.47
2022-10-04T09:08:03.581Z,97218.25
2022-10-04T09:09:40.609Z,97225.31
2022-10-04T09:11:00.441Z,97228.88
2022-10-04T09:12:17.036Z,97223.22
2022-10-04T09:13:40.593Z,97219.28
2022-10-04T09:20:26.280Z,97227.28
2022-10-04T09:21:43.672Z,97222.97
2022-10-04T09:23:06.281Z,97223.47
2022-10-04T09:24:26.761Z,97216.78
2022-10-04T09:25:51.462Z,97225.41
2022-10-04T09:27:36.811Z,97218.81
2022-10-04T09:29:05.473Z,97215.94
2022-10-04T09:30:17.705Z,97198.84
2022-10-04T09:31:53.265Z,97191.81
2022-10-04T09:33:14.613Z,97206.91
2022-10-04T09:34:28.001Z,97215.69
2022-10-04T09:35:41.636Z,97210.50
2022-10-04T09:37:12.928Z,97208.00
2022-10-04T09:45:24.849Z,97207.81
2022-10-04T09:46:56.679Z,97173.97
2022-10-04T09:48:30.016Z,97211.91
2022-10-04T09:50:00.633Z,97210.75
2022-10-04T09:51:13.902Z,97208.38
2022-10-04T09:52:21.403Z,97205.25
2022-10-04T09:53:40.250Z,97208.13
2022-10-04T09:55:13.245Z,97205.59
2022-10-04T09:56:31.517Z,97204.97
2022-10-04T09:58:07.811Z,97209.16
2022-10-04T09:59:27.778Z,97204.94
2022-10-04T10:00:44.487Z,97212.31
2022-10-04T10:02:29.081Z,97203.34
2022-10-04T10:03:47.444Z,97208.09
2022-10-04T10:05:19.633Z,97215.34
2022-10-04T10:07:00.308Z,97209.81
2022-10-04T10:08:27.980Z,97206.09
2022-10-04T10:09:58.474Z,97212.28
2022-10-04T10:11:54.221Z,97205.50
2022-10-04T10:13:40.898Z,97214.47
2022-10-04T10:14:48.272Z,97206.03
2022-10-04T10:15:59.394Z,97212.16
2022-10-04T10:17:24.532Z,97209.13
2022-10-04T10:18:37.132Z,97200.94
2022-10-04T10:19:58.906Z,97195.44
2022-10-04T10:21:36.774Z,97203.31
2022-10-04T10:23:10.279Z,97209.56
2022-10-04T10:31:20.491Z,97209.00
2022-10-04T10:32:50.911Z,97198.34
2022-10-04T10:34:23.474Z,97205.94
2022-10-04T10:35:27.727Z,97204.97
2022-10-04T10:42:03.388Z,97210.63
2022-10-04T10:43:30.169Z,97206.78
2022-10-04T10:45:09.308Z,97212.03
2022-10-04T10:46:27.576Z,97204.75
2022-10-04T10:47:37.764Z,97206.28
2022-10-04T10:49:04.565Z,97203.88
2022-10-04T10:50:25.404Z,97205.13
2022-10-04T10:52:05.058Z,97201.78
2022-10-04T10:53:32.521Z,97192.13
2022-10-04T10:55:00.955Z,97197.53
2022-10-04T10:56:08.550Z,97200.00
2022-10-04T10:57:34.146Z,97198.81
2022-10-04T10:59:17.360Z,97187.66
2022-10-04T11:00:20.298Z,97202.81
2022-10-04T11:01:50.946Z,97193.69
2022-10-04T11:03:23.987Z,97197.78
2022-10-04T11:05:05.038Z,97199.41
2022-10-04T11:06:25.099Z,97196.00
2022-10-04T11:07:43.718Z,97192.38
2022-10-04T11:09:10.674Z,97194.34
2022-10-04T11:10:51.245Z,97190.25
2022-10-04T11:19:07.021Z,97178.00
2022-10-04T11:20:54.321Z,97190.59
2022-10-04T11:22:32.674Z,97183.59
2022-10-04T11:23:51.813Z,97189.84
2022-10-04T11:36:36.081Z,97176.94
2022-10-04T11:38:12.072Z,97174.16
2022-10-04T11:39:30.387Z,97176.06
2022-10-04T11:41:03.831Z,97182.53
2022-10-04T11:42:19.089Z,97170.28
2022-10-04T11:43:32.715Z,97164.91
2022-10-04T11:44:47.291Z,97164.22
2022-10-04T11:46:10.731Z,97162.16
2022-10-04T11:47:46.666Z,97161.28
2022-10-04T11:49:18.686Z,97159.88
2022-10-04T11:50:41.442Z,97152.16
2022-10-04T11:52:34.266Z,97153.78
2022-10-04T11:53:52.909Z,97151.69
2022-10-04T11:55:35.389Z,97152.13
2022-10-04T11:57:09.045Z,97147.66
2022-10-04T11:58:25.497Z,97154.53
2022-10-04T12:00:02.325Z,97146.31
2022-10-04T12:01:41.402Z,97142.34
2022-10-04T12:03:40.838Z,97145.59
2022-10-04T12:05:08.703Z,97142.56
2022-10-04T12:06:17.014Z,97147.03
2022-10-04T12:07:27.771Z,97146.81
2022-10-04T12:08:40.932Z,97141.75
2022-10-04T12:10:00.034Z,97145.97
2022-10-04T12:11:26.351Z,97145.16
2022-10-04T12:12:43.846Z,97136.88
2022-10-04T12:14:22.069Z,97141.88
2022-10-04T12:15:41.066Z,97143.84
2022-10-04T12:17:01.411Z,97144.19
2022-10-04T12:18:15.637Z,97138.19
2022-10-04T12:19:40.582Z,97134.72
2022-10-04T12:21:09.954Z,97141.03
2022-10-04T12:22:39.259Z,97129.16
2022-10-04T12:23:41.081Z,97133.56
2022-10-04T12:30:04.071Z,97129.50
2022-10-04T12:31:16.374Z,97132.47
2022-10-04T12:32:57.722Z,97135.63
2022-10-04T12:34:14.640Z,97135.72
2022-10-04T12:35:34.925Z,97138.34
2022-10-04T12:39:11.198Z,97141.97
2022-10-04T12:40:12.513Z,97137.97
2022-10-04T12:41:49.874Z,97122.28
2022-10-04T12:42:56.955Z,97140.97
2022-10-04T12:44:27.095Z,97139.50
2022-10-04T12:45:41.669Z,97129.50
2022-10-04T12:53:58.718Z,97120.16
2022-10-04T12:55:24.727Z,97120.97
2022-10-04T12:56:57.079Z,97117.56
2022-10-04T12:58:14.354Z,97115.50
2022-10-04T12:59:18.451Z,97118.41
2022-10-04T13:00:25.290Z,97091.25
2022-10-04T13:01:35.156Z,97111.91
2022-10-04T13:02:49.448Z,97098.78
2022-10-04T13:03:53.688Z,97114.50
2022-10-04T13:05:03.127Z,97117.63
2022-10-04T13:06:26.553Z,97117.50
2022-10-04T13:07:39.129Z,97111.47
2022-10-04T13:08:43.579Z,97101.97
2022-10-04T13:10:24.244Z,97111.06
2022-10-04T13:11:45.684Z,97109.75
2022-10-04T13:13:08.816Z,97108.41
2022-10-04T13:14:47.374Z,97110.63
2022-10-04T13:18:23.456Z,97114.56
2022-10-04T13:19:53.190Z,97120.41
2022-10-04T13:21:03.893Z,97115.69
2022-10-04T13:22:37.605Z,97116.91
2022-10-04T13:24:01.552Z,97124.78
2022-10-04T13:25:21.361Z,97115.94
2022-10-04T13:26:25.425Z,97120.78
2022-10-04T13:28:06.414Z,97112.25
2022-10-04T13:29:34.383Z,97113.22
2022-10-04T13:30:50.078Z,97105.19
2022-10-04T13:32:07.849Z,97111.19
2022-10-04T13:33:39.964Z,97121.88
2022-10-04T13:34:53.225Z,97107.13
2022-10-04T13:35:58.285Z,97114.16
2022-10-04T13:37:18.134Z,97116.28
2022-10-04T13:38:53.267Z,97120.47
2022-10-04T13:40:15.466Z,97108.41
2022-10-04T13:41:37.616Z,97096.88
2022-10-04T13:43:05.947Z,97103.22
2022-10-04T13:44:40.502Z,97080.34
2022-10-04T13:46:16.144Z,97108.81
2022-10-04T13:54:44.558Z,97107.16
2022-10-04T13:56:37.413Z,97112.19
2022-10-04T13:58:28.789Z,97109.72
2022-10-04T13:59:39.398Z,97112.88
2022-10-04T14:00:51.524Z,97110.16
2022-10-04T14:01:53.365Z,97110.50
2022-10-04T14:02:57.829Z,97109.97
2022-10-04T14:04:36.172Z,97087.06
2022-10-04T14:06:09.526Z,97109.63
2022-10-04T14:07:37.979Z,97107.41
2022-10-04T14:09:33.332Z,97103.91
2022-10-04T14:10:53.498Z,97099.38
2022-10-04T14:12:04.171Z,97101.81
2022-10-04T14:13:40.619Z,97079.59
2022-10-04T14:15:16.290Z,97077.06
2022-10-04T14:16:51.722Z,97097.31
2022-10-04T14:18:43.373Z,97096.63
2022-10-04T14:20:04.572Z,97096.69
2022-10-04T14:21:18.205Z,97097.38
2022-10-04T14:22:31.982Z,97099.84
2022-10-04T14:24:15.129Z,97094.34
2022-10-04T14:25:27.168Z,97091.41
2022-10-04T14:27:03.577Z,97094.22
2022-10-04T14:28:26.916Z,97091.91
2022-10-04T14:29:40.272Z,97084.84
2022-10-04T14:31:20.075Z,97087.38
2022-10-04T14:32:52.277Z,97092.97
2022-10-04T14:34:27.036Z,97088.28
2022-10-04T14:35:42.435Z,97087.75
2022-10-04T14:37:08.723Z,97090.81
2022-10-04T14:38:43.188Z,97082.53
2022-10-04T14:40:07.365Z,97084.97
2022-10-04T14:41:27.978Z,97084.38
2022-10-04T14:42:38.409Z,97081.25
2022-10-04T14:44:17.126Z,97082.38
2022-10-04T14:45:27.037Z,97065.03
2022-10-04T14:47:03.718Z,97086.34
2022-10-04T14:48:20.555Z,97088.16
2022-10-04T14:49:46.862Z,97056.22
2022-10-04T14:50:50.894Z,97086.56
2022-10-04T14:52:39.342Z,97084.47
2022-10-04T14:54:00.983Z,97086.41
2022-10-04T14:55:34.896Z,97070.44
2022-10-04T14:57:15.032Z,97085.25
2022-10-04T14:58:35.121Z,97079.44
2022-10-04T15:00:01.520Z,97073.63
2022-10-04T15:01:18.082Z,97078.22
2022-10-04T15:02:22.177Z,97071.59
2022-10-04T15:03:55.279Z,97068.66
2022-10-04T15:05:28.542Z,97059.81
2022-10-04T15:06:54.692Z,97068.75
2022-10-04T17:10:21.490Z,97062.81
